sensor_id;sensor_type;location;lat;lon;timestamp;pressure;altitude;pressure_sealevel;temperature;humidity
73383;BME280;61600;48.126;11.542;2023-05-14T00:01:05;95534.53;;;15.02;67.34
73383;BME280;61600;48.126;11.542;2023-05-14T00:03:32;95543.28;;;15.13;66.16
73383;BME280;61600;48.126;11.542;2023-05-14T00:05:58;95535.19;;;15.08;66.46
73383;BME280;61600;48.126;11.542;2023-05-14T00:08:24;95530.69;;;15.12;66.50
73383;BME280;61600;48.126;11.542;2023-05-14T00:10:49;95532.00;;;15.14;66.41
73383;BME280;61600;48.126;11.542;2023-05-14T00:13:15;95531.06;;;15.19;65.36
73383;BME280;61600;48.126;11.542;2023-05-14T00:15:41;95531.50;;;15.12;66.00
73383;BME280;61600;48.126;11.542;2023-05-14T00:18:07;95524.53;;;14.97;66.49
73383;BME280;61600;48.126;11.542;2023-05-14T00:20:42;95523.44;;;14.76;67.23
73383;BME280;61600;48.126;11.542;2023-05-14T00:23:10;95530.59;;;14.86;67.24
73383;BME280;61600;48.126;11.542;2023-05-14T00:25:36;95524.19;;;14.99;66.23
73383;BME280;61600;48.126;11.542;2023-05-14T00:28:02;95523.06;;;15.00;66.26
73383;BME280;61600;48.126;11.542;2023-05-14T00:30:28;95526.75;;;14.95;66.57
73383;BME280;61600;48.126;11.542;2023-05-14T00:32:54;95526.72;;;14.87;66.86
73383;BME280;61600;48.126;11.542;2023-05-14T00:35:25;95525.84;;;14.78;66.93
73383;BME280;61600;48.126;11.542;2023-05-14T00:37:51;95522.59;;;14.67;66.81
73383;BME280;61600;48.126;11.542;2023-05-14T00:40:18;95525.78;;;14.61;67.27
73383;BME280;61600;48.126;11.542;2023-05-14T00:42:44;95523.03;;;14.61;67.46
73383;BME280;61600;48.126;11.542;2023-05-14T00:45:10;95527.97;;;14.50;67.61
73383;BME280;61600;48.126;11.542;2023-05-14T00:47:36;95526.00;;;14.42;67.62
73383;BME280;61600;48.126;11.542;2023-05-14T00:50:04;95519.94;;;14.54;68.57
73383;BME280;61600;48.126;11.542;2023-05-14T00:52:30;95514.78;;;14.52;68.14
73383;BME280;61600;48.126;11.542;2023-05-14T00:54:57;95517.81;;;14.50;68.24
73383;BME280;61600;48.126;11.542;2023-05-14T00:57:23;95511.69;;;14.45;67.47
73383;BME280;61600;48.126;11.542;2023-05-14T00:59:49;95521.84;;;14.53;67.32
73383;BME280;61600;48.126;11.542;2023-05-14T01:02:15;95520.56;;;14.28;67.80
73383;BME280;61600;48.126;11.542;2023-05-14T01:04:41;95521.53;;;14.32;67.44
73383;BME280;61600;48.126;11.542;2023-05-14T01:07:32;95521.50;;;14.24;67.91
73383;BME280;61600;48.126;11.542;2023-05-14T01:10:07;95518.59;;;14.29;68.66
73383;BME280;61600;48.126;11.542;2023-05-14T01:12:53;95523.59;;;14.27;67.85
73383;BME280;61600;48.126;11.542;2023-05-14T01:15:27;95518.00;;;14.32;67.98
73383;BME280;61600;48.126;11.542;2023-05-14T01:18:04;95513.66;;;14.31;68.46
73383;BME280;61600;48.126;11.542;2023-05-14T01:20:31;95514.22;;;14.19;68.41
73383;BME280;61600;48.126;11.542;2023-05-14T01:22:57;95515.03;;;14.20;68.40
73383;BME280;61600;48.126;11.542;2023-05-14T01:25:23;95507.63;;;14.20;68.22
73383;BME280;61600;48.126;11.542;2023-05-14T01:30:36;95499.78;;;14.27;68.55
73383;BME280;61600;48.126;11.542;2023-05-14T01:33:10;95499.66;;;14.32;68.11
73383;BME280;61600;48.126;11.542;2023-05-14T01:35:36;95499.47;;;14.29;68.12
73383;BME280;61600;48.126;11.542;2023-05-14T01:38:05;95497.44;;;14.34;68.31
73383;BME280;61600;48.126;11.542;2023-05-14T01:40:31;95495.19;;;14.36;67.83
73383;BME280;61600;48.126;11.542;2023-05-14T01:42:59;95496.97;;;14.19;68.08
73383;BME280;61600;48.126;11.542;2023-05-14T01:45:25;95499.91;;;14.22;67.42
73383;BME280;61600;48.126;11.542;2023-05-14T01:47:51;95501.22;;;14.25;67.39
73383;BME280;61600;48.126;11.542;2023-05-14T01:50:17;95493.69;;;14.30;67.68
73383;BME280;61600;48.126;11.542;2023-05-14T01:52:43;95493.38;;;14.32;66.67
73383;BME280;61600;48.126;11.542;2023-05-14T01:55:09;95489.31;;;14.29;66.95
73383;BME280;61600;48.126;11.542;2023-05-14T01:57:35;95486.59;;;14.29;66.80
73383;BME280;61600;48.126;11.542;2023-05-14T02:00:01;95482.44;;;14.32;67.09
73383;BME280;61600;48.126;11.542;2023-05-14T02:02:26;95482.88;;;14.25;66.50
73383;BME280;61600;48.126;11.542;2023-05-14T02:04:52;95479.34;;;14.25;66.60
73383;BME280;61600;48.126;11.542;2023-05-14T02:07:18;95477.84;;;14.19;66.70
73383;BME280;61600;48.126;11.542;2023-05-14T02:09:44;95482.00;;;14.16;67.54
73383;BME280;61600;48.126;11.542;2023-05-14T02:12:18;95483.31;;;14.19;66.39
73383;BME280;61600;48.126;11.542;2023-05-14T02:14:44;95490.94;;;14.08;67.19
73383;BME280;61600;48.126;11.542;2023-05-14T02:17:10;95493.25;;;14.15;67.00
73383;BME280;61600;48.126;11.542;2023-05-14T02:19:36;95486.34;;;13.95;67.17
73383;BME280;61600;48.126;11.542;2023-05-14T02:22:01;95487.41;;;13.85;67.83
73383;BME280;61600;48.126;11.542;2023-05-14T02:24:27;95490.53;;;13.92;67.74
73383;BME280;61600;48.126;11.542;2023-05-14T02:26:53;95479.69;;;13.87;67.69
73383;BME280;61600;48.126;11.542;2023-05-14T02:29:19;95484.34;;;13.87;67.72
73383;BME280;61600;48.126;11.542;2023-05-14T02:31:45;95485.31;;;13.82;68.60
73383;BME280;61600;48.126;11.542;2023-05-14T02:34:11;95479.69;;;13.87;68.16
73383;BME280;61600;48.126;11.542;2023-05-14T02:36:37;95479.03;;;13.82;68.00
73383;BME280;61600;48.126;11.542;2023-05-14T02:39:03;95478.34;;;13.98;68.24
73383;BME280;61600;48.126;11.542;2023-05-14T02:41:29;95476.16;;;13.87;68.83
73383;BME280;61600;48.126;11.542;2023-05-14T02:43:55;95479.66;;;13.79;68.38
73383;BME280;61600;48.126;11.542;2023-05-14T02:46:20;95487.41;;;13.85;68.05
73383;BME280;61600;48.126;11.542;2023-05-14T02:48:46;95485.13;;;13.79;68.38
73383;BME280;61600;48.126;11.542;2023-05-14T02:51:12;95484.06;;;13.88;68.79
73383;BME280;61600;48.126;11.542;2023-05-14T02:53:38;95472.41;;;13.83;68.32
73383;BME280;61600;48.126;11.542;2023-05-14T02:56:03;95484.50;;;13.82;68.72
73383;BME280;61600;48.126;11.542;2023-05-14T02:58:29;95474.38;;;13.82;68.77
73383;BME280;61600;48.126;11.542;2023-05-14T03:00:55;95476.53;;;13.72;69.07
73383;BME280;61600;48.126;11.542;2023-05-14T03:03:21;95468.19;;;13.77;68.91
73383;BME280;61600;48.126;11.542;2023-05-14T03:05:47;95464.22;;;13.83;68.83
73383;BME280;61600;48.126;11.542;2023-05-14T03:08:12;95462.28;;;13.83;68.84
73383;BME280;61600;48.126;11.542;2023-05-14T03:10:38;95466.56;;;13.76;68.58
73383;BME280;61600;48.126;11.542;2023-05-14T03:13:04;95461.06;;;13.67;68.81
73383;BME280;61600;48.126;11.542;2023-05-14T03:15:30;95470.06;;;13.68;69.45
73383;BME280;61600;48.126;11.542;2023-05-14T03:17:55;95468.47;;;13.53;69.78
73383;BME280;61600;48.126;11.542;2023-05-14T03:20:23;95457.84;;;13.51;70.21
73383;BME280;61600;48.126;11.542;2023-05-14T03:22:48;95463.78;;;13.67;69.17
73383;BME280;61600;48.126;11.542;2023-05-14T03:25:14;95468.19;;;13.77;68.77
73383;BME280;61600;48.126;11.542;2023-05-14T03:27:41;95463.84;;;13.76;69.24
73383;BME280;61600;48.126;11.542;2023-05-14T03:30:07;95463.91;;;13.84;68.50
73383;BME280;61600;48.126;11.542;2023-05-14T03:32:33;95449.25;;;13.80;68.47
73383;BME280;61600;48.126;11.542;2023-05-14T03:34:59;95458.84;;;13.56;68.90
73383;BME280;61600;48.126;11.542;2023-05-14T03:37:24;95458.56;;;13.79;68.80
73383;BME280;61600;48.126;11.542;2023-05-14T03:39:50;95457.88;;;13.74;68.45
73383;BME280;61600;48.126;11.542;2023-05-14T03:42:16;95458.75;;;13.83;68.21
73383;BME280;61600;48.126;11.542;2023-05-14T03:44:42;95461.34;;;13.66;69.40
73383;BME280;61600;48.126;11.542;2023-05-14T03:47:07;95457.59;;;13.39;69.26
73383;BME280;61600;48.126;11.542;2023-05-14T03:49:33;95463.94;;;13.48;70.37
73383;BME280;61600;48.126;11.542;2023-05-14T03:51:59;95457.59;;;13.62;70.78
73383;BME280;61600;48.126;11.542;2023-05-14T03:54:25;95453.09;;;13.57;69.62
73383;BME280;61600;48.126;11.542;2023-05-14T03:56:51;95453.09;;;13.57;69.69
73383;BME280;61600;48.126;11.542;2023-05-14T03:59:17;95453.94;;;13.30;69.89
73383;BME280;61600;48.126;11.542;2023-05-14T04:01:43;95461.75;;;13.37;69.80
73383;BME280;61600;48.126;11.542;2023-05-14T04:04:09;95458.22;;;13.36;70.86
73383;BME280;61600;48.126;11.542;2023-05-14T04:06:35;95457.06;;;13.37;70.07
73383;BME280;61600;48.126;11.542;2023-05-14T04:09:01;95449.03;;;13.55;70.06
73383;BME280;61600;48.126;11.542;2023-05-14T04:11:28;95450.47;;;13.52;69.45
73383;BME280;61600;48.126;11.542;2023-05-14T04:13:54;95447.53;;;13.48;69.78
73383;BME280;61600;48.126;11.542;2023-05-14T04:16:19;95453.75;;;13.40;69.98
73383;BME280;61600;48.126;11.542;2023-05-14T04:18:45;95456.16;;;13.42;70.34
73383;BME280;61600;48.126;11.542;2023-05-14T04:21:11;95452.75;;;13.36;70.46
73383;BME280;61600;48.126;11.542;2023-05-14T04:23:37;95455.88;;;13.43;70.56
73383;BME280;61600;48.126;11.542;2023-05-14T04:26:02;95453.81;;;13.49;69.61
73383;BME280;61600;48.126;11.542;2023-05-14T04:28:29;95458.41;;;13.40;69.55
73383;BME280;61600;48.126;11.542;2023-05-14T04:30:55;95465.47;;;13.41;70.25
73383;BME280;61600;48.126;11.542;2023-05-14T04:33:21;95456.69;;;13.30;70.31
73383;BME280;61600;48.126;11.542;2023-05-14T04:35:46;95463.34;;;13.38;70.25
73383;BME280;61600;48.126;11.542;2023-05-14T04:38:12;95460.88;;;13.14;70.87
73383;BME280;61600;48.126;11.542;2023-05-14T04:40:39;95460.66;;;12.97;71.93
73383;BME280;61600;48.126;11.542;2023-05-14T04:43:06;95457.13;;;13.10;71.74
73383;BME280;61600;48.126;11.542;2023-05-14T04:45:32;95453.97;;;13.03;71.20
73383;BME280;61600;48.126;11.542;2023-05-14T04:47:58;95462.31;;;13.12;70.87
73383;BME280;61600;48.126;11.542;2023-05-14T04:50:24;95463.97;;;13.35;70.66
73383;BME280;61600;48.126;11.542;2023-05-14T04:52:50;95464.09;;;13.30;70.43
73383;BME280;61600;48.126;11.542;2023-05-14T04:55:16;95457.13;;;13.10;71.36
73383;BME280;61600;48.126;11.542;2023-05-14T04:57:41;95466.81;;;13.16;71.35
73383;BME280;61600;48.126;11.542;2023-05-14T05:00:08;95462.28;;;12.98;71.47
73383;BME280;61600;48.126;11.542;2023-05-14T05:02:36;95459.75;;;13.01;71.37
73383;BME280;61600;48.126;11.542;2023-05-14T05:05:02;95460.25;;;12.90;72.80
73383;BME280;61600;48.126;11.542;2023-05-14T05:07:28;95469.66;;;12.97;72.13
73383;BME280;61600;48.126;11.542;2023-05-14T05:09:54;95465.22;;;13.01;72.33
73383;BME280;61600;48.126;11.542;2023-05-14T05:12:20;95469.25;;;13.04;73.06
73383;BME280;61600;48.126;11.542;2023-05-14T05:14:46;95466.31;;;13.00;71.67
73383;BME280;61600;48.126;11.542;2023-05-14T05:17:11;95459.34;;;13.22;71.93
73383;BME280;61600;48.126;11.542;2023-05-14T05:19:37;95461.28;;;13.21;71.39
73383;BME280;61600;48.126;11.542;2023-05-14T05:22:03;95460.06;;;13.14;71.69
73383;BME280;61600;48.126;11.542;2023-05-14T05:24:29;95464.81;;;13.08;71.26
73383;BME280;61600;48.126;11.542;2023-05-14T05:26:55;95465.72;;;13.17;71.76
73383;BME280;61600;48.126;11.542;2023-05-14T05:29:21;95468.88;;;13.11;71.05
73383;BME280;61600;48.126;11.542;2023-05-14T05:31:48;95472.28;;;13.02;72.66
73383;BME280;61600;48.126;11.542;2023-05-14T05:34:14;95462.78;;;13.14;72.43
73383;BME280;61600;48.126;11.542;2023-05-14T05:36:39;95468.25;;;13.14;72.32
73383;BME280;61600;48.126;11.542;2023-05-14T05:39:05;95463.00;;;13.17;71.44
73383;BME280;61600;48.126;11.542;2023-05-14T05:41:31;95466.53;;;13.04;71.92
73383;BME280;61600;48.126;11.542;2023-05-14T05:43:57;95462.78;;;13.14;72.63
73383;BME280;61600;48.126;11.542;2023-05-14T05:46:23;95466.81;;;13.02;71.60
73383;BME280;61600;48.126;11.542;2023-05-14T05:48:48;95467.16;;;13.15;72.20
73383;BME280;61600;48.126;11.542;2023-05-14T05:51:14;95476.13;;;13.01;71.95
73383;BME280;61600;48.126;11.542;2023-05-14T05:53:40;95465.84;;;13.12;72.02
73383;BME280;61600;48.126;11.542;2023-05-14T05:56:06;95472.28;;;13.02;72.55
73383;BME280;61600;48.126;11.542;2023-05-14T05:58:32;95468.66;;;13.21;72.14
73383;BME280;61600;48.126;11.542;2023-05-14T06:00:57;95467.41;;;13.40;70.94
73383;BME280;61600;48.126;11.542;2023-05-14T06:03:23;95467.78;;;13.47;70.34
73383;BME280;61600;48.126;11.542;2023-05-14T06:05:49;95466.94;;;13.61;70.85
73383;BME280;61600;48.126;11.542;2023-05-14T06:08:17;95458.75;;;13.83;69.81
73383;BME280;61600;48.126;11.542;2023-05-14T06:10:43;95465.22;;;13.87;69.18
73383;BME280;61600;48.126;11.542;2023-05-14T06:13:09;95466.53;;;13.89;68.97
73383;BME280;61600;48.126;11.542;2023-05-14T06:15:35;95458.94;;;13.86;69.20
73383;BME280;61600;48.126;11.542;2023-05-14T06:18:01;95464.53;;;13.81;69.70
73383;BME280;61600;48.126;11.542;2023-05-14T06:20:26;95465.47;;;13.99;69.61
73383;BME280;61600;48.126;11.542;2023-05-14T06:22:52;95455.28;;;13.91;69.08
73383;BME280;61600;48.126;11.542;2023-05-14T06:25:18;95459.94;;;13.90;69.11
73383;BME280;61600;48.126;11.542;2023-05-14T06:27:44;95464.56;;;14.04;69.63
73383;BME280;61600;48.126;11.542;2023-05-14T06:30:10;95459.13;;;14.12;68.51
73383;BME280;61600;48.126;11.542;2023-05-14T06:32:36;95464.53;;;14.26;68.43
73383;BME280;61600;48.126;11.542;2023-05-14T06:35:02;95468.81;;;14.18;67.59
73383;BME280;61600;48.126;11.542;2023-05-14T06:37:28;95471.44;;;14.23;67.90
73383;BME280;61600;48.126;11.542;2023-05-14T06:39:54;95457.69;;;14.37;67.13
73383;BME280;61600;48.126;11.542;2023-05-14T06:42:20;95468.38;;;14.47;67.23
73383;BME280;61600;48.126;11.542;2023-05-14T06:44:46;95463.44;;;14.58;66.81
73383;BME280;61600;48.126;11.542;2023-05-14T06:47:11;95457.59;;;14.42;66.94
73383;BME280;61600;48.126;11.542;2023-05-14T06:49:37;95454.94;;;14.59;66.55
73383;BME280;61600;48.126;11.542;2023-05-14T06:52:04;95463.81;;;14.65;66.37
73383;BME280;61600;48.126;11.542;2023-05-14T06:54:30;95460.59;;;14.63;65.95
73383;BME280;61600;48.126;11.542;2023-05-14T06:56:56;95463.34;;;14.40;67.48
73383;BME280;61600;48.126;11.542;2023-05-14T06:59:22;95470.09;;;14.34;67.20
73383;BME280;61600;48.126;11.542;2023-05-14T07:01:48;95468.34;;;14.38;67.81
73383;BME280;61600;48.126;11.542;2023-05-14T07:04:14;95472.41;;;14.49;66.62
73383;BME280;61600;48.126;11.542;2023-05-14T07:06:39;95472.16;;;14.60;66.96
73383;BME280;61600;48.126;11.542;2023-05-14T07:09:05;95453.59;;;14.87;66.17
73383;BME280;61600;48.126;11.542;2023-05-14T07:11:32;95453.25;;;14.89;64.88
73383;BME280;61600;48.126;11.542;2023-05-14T07:13:58;95435.41;;;15.00;64.60
73383;BME280;61600;48.126;11.542;2023-05-14T07:16:24;95437.34;;;14.99;64.71
73383;BME280;61600;48.126;11.542;2023-05-14T07:18:50;95436.41;;;14.65;66.45
73383;BME280;61600;48.126;11.542;2023-05-14T07:21:16;95444.63;;;14.56;66.77
73383;BME280;61600;48.126;11.542;2023-05-14T07:23:42;95425.06;;;14.80;65.91
73383;BME280;61600;48.126;11.542;2023-05-14T07:26:08;95431.81;;;14.82;66.00
73383;BME280;61600;48.126;11.542;2023-05-14T07:28:34;95432.56;;;15.14;64.48
73383;BME280;61600;48.126;11.542;2023-05-14T07:31:00;95424.09;;;15.49;64.03
73383;BME280;61600;48.126;11.542;2023-05-14T07:33:25;95426.03;;;15.49;64.54
73383;BME280;61600;48.126;11.542;2023-05-14T07:35:51;95427.59;;;15.41;63.75
73383;BME280;61600;48.126;11.542;2023-05-14T07:38:18;95430.69;;;15.40;63.30
73383;BME280;61600;48.126;11.542;2023-05-14T07:40:44;95433.44;;;15.48;62.99
73383;BME280;61600;48.126;11.542;2023-05-14T07:43:09;95433.28;;;15.54;63.44
73383;BME280;61600;48.126;11.542;2023-05-14T07:45:36;95426.53;;;15.60;62.20
73383;BME280;61600;48.126;11.542;2023-05-14T07:48:02;95423.25;;;15.40;63.74
73383;BME280;61600;48.126;11.542;2023-05-14T07:50:28;95418.13;;;15.47;63.21
73383;BME280;61600;48.126;11.542;2023-05-14T07:52:54;95418.75;;;15.36;62.61
73383;BME280;61600;48.126;11.542;2023-05-14T07:55:20;95417.09;;;15.18;63.17
73383;BME280;61600;48.126;11.542;2023-05-14T07:57:45;95413.19;;;15.02;64.09
73383;BME280;61600;48.126;11.542;2023-05-14T08:00:11;95414.69;;;15.16;64.20
73383;BME280;61600;48.126;11.542;2023-05-14T08:02:37;95410.88;;;15.52;62.91
73383;BME280;61600;48.126;11.542;2023-05-14T08:05:04;95418.91;;;15.39;62.88
73383;BME280;61600;48.126;11.542;2023-05-14T08:07:30;95415.50;;;15.25;63.90
73383;BME280;61600;48.126;11.542;2023-05-14T08:09:55;95418.84;;;15.14;64.39
73383;BME280;61600;48.126;11.542;2023-05-14T08:12:21;95407.41;;;15.12;64.67
73383;BME280;61600;48.126;11.542;2023-05-14T08:14:47;95416.13;;;15.31;64.01
73383;BME280;61600;48.126;11.542;2023-05-14T08:17:13;95419.53;;;15.19;64.21
73383;BME280;61600;48.126;11.542;2023-05-14T08:19:39;95425.81;;;15.28;63.81
73383;BME280;61600;48.126;11.542;2023-05-14T08:22:04;95419.72;;;15.48;63.29
73383;BME280;61600;48.126;11.542;2023-05-14T08:24:30;95425.53;;;15.56;62.09
73383;BME280;61600;48.126;11.542;2023-05-14T08:26:56;95426.84;;;15.49;62.13
73383;BME280;61600;48.126;11.542;2023-05-14T08:29:22;95426.03;;;15.58;62.87
73383;BME280;61600;48.126;11.542;2023-05-14T08:31:48;95424.75;;;15.64;62.63
73383;BME280;61600;48.126;11.542;2023-05-14T08:34:14;95429.75;;;15.53;63.04
73383;BME280;61600;48.126;11.542;2023-05-14T08:36:40;95425.84;;;15.45;62.56
73383;BME280;61600;48.126;11.542;2023-05-14T08:39:07;95426.03;;;15.49;63.58
73383;BME280;61600;48.126;11.542;2023-05-14T08:41:33;95426.97;;;15.44;63.21
73383;BME280;61600;48.126;11.542;2023-05-14T08:44:12;95417.31;;;15.47;63.22
73383;BME280;61600;48.126;11.542;2023-05-14T08:46:39;95416.31;;;15.34;63.78
73383;BME280;61600;48.126;11.542;2023-05-14T08:51:49;95415.84;;;15.41;63.66
73383;BME280;61600;48.126;11.542;2023-05-14T08:54:15;95412.94;;;15.37;62.56
73383;BME280;61600;48.126;11.542;2023-05-14T08:56:45;95415.34;;;15.39;63.23
73383;BME280;61600;48.126;11.542;2023-05-14T08:59:12;95414.06;;;15.45;63.35
73383;BME280;61600;48.126;11.542;2023-05-14T09:01:47;95417.16;;;15.61;62.67
73383;BME280;61600;48.126;11.542;2023-05-14T09:04:19;95420.84;;;15.30;63.15
73383;BME280;61600;48.126;11.542;2023-05-14T09:06:48;95411.97;;;15.33;62.89
73383;BME280;61600;48.126;11.542;2023-05-14T09:09:14;95414.69;;;15.25;63.38
73383;BME280;61600;48.126;11.542;2023-05-14T09:11:41;95410.97;;;15.21;64.19
73383;BME280;61600;48.126;11.542;2023-05-14T09:14:10;95410.50;;;15.19;63.92
73383;BME280;61600;48.126;11.542;2023-05-14T09:16:36;95409.81;;;15.13;63.91
73383;BME280;61600;48.126;11.542;2023-05-14T09:19:03;95408.41;;;15.24;62.72
73383;BME280;61600;48.126;11.542;2023-05-14T09:21:29;95411.78;;;15.21;63.09
73383;BME280;61600;48.126;11.542;2023-05-14T09:23:56;95402.88;;;15.07;64.52
73383;BME280;61600;48.126;11.542;2023-05-14T09:26:26;95397.13;;;15.34;63.11
73383;BME280;61600;48.126;11.542;2023-05-14T09:28:53;95403.41;;;15.26;63.19
73383;BME280;61600;48.126;11.542;2023-05-14T09:31:20;95401.97;;;15.37;62.76
73383;BME280;61600;48.126;11.542;2023-05-14T09:33:50;95401.34;;;15.40;62.20
73383;BME280;61600;48.126;11.542;2023-05-14T09:36:17;95401.00;;;15.16;63.34
73383;BME280;61600;48.126;11.542;2023-05-14T09:38:43;95407.06;;;14.96;64.83
73383;BME280;61600;48.126;11.542;2023-05-14T09:41:09;95413.22;;;15.19;63.66
73383;BME280;61600;48.126;11.542;2023-05-14T09:43:35;95416.13;;;15.31;63.32
73383;BME280;61600;48.126;11.542;2023-05-14T09:46:01;95414.38;;;15.35;63.75
73383;BME280;61600;48.126;11.542;2023-05-14T09:48:27;95404.75;;;15.55;62.12
73383;BME280;61600;48.126;11.542;2023-05-14T09:50:54;95403.59;;;15.47;61.43
73383;BME280;61600;48.126;11.542;2023-05-14T09:53:20;95408.88;;;15.18;62.96
73383;BME280;61600;48.126;11.542;2023-05-14T09:55:46;95398.72;;;15.18;62.97
73383;BME280;61600;48.126;11.542;2023-05-14T09:58:12;95396.94;;;15.31;62.71
73383;BME280;61600;48.126;11.542;2023-05-14T10:00:45;95399.19;;;15.20;63.54
73383;BME280;61600;48.126;11.542;2023-05-14T10:03:13;95400.00;;;15.12;61.58
73383;BME280;61600;48.126;11.542;2023-05-14T10:05:41;95400.81;;;15.13;62.49
73383;BME280;61600;48.126;11.542;2023-05-14T10:10:47;95399.69;;;15.14;61.80
73383;BME280;61600;48.126;11.542;2023-05-14T10:13:19;95402.41;;;15.05;62.32
73383;BME280;61600;48.126;11.542;2023-05-14T10:15:48;95406.31;;;15.21;62.31
73383;BME280;61600;48.126;11.542;2023-05-14T10:18:18;95404.50;;;15.17;62.40
73383;BME280;61600;48.126;11.542;2023-05-14T10:20:52;95403.91;;;15.37;60.61
73383;BME280;61600;48.126;11.542;2023-05-14T10:23:19;95411.16;;;15.33;60.88
73383;BME280;61600;48.126;11.542;2023-05-14T10:25:45;95405.00;;;15.27;61.80
73383;BME280;61600;48.126;11.542;2023-05-14T10:28:11;95403.69;;;15.08;61.65
73383;BME280;61600;48.126;11.542;2023-05-14T10:30:44;95391.16;;;15.32;61.01
73383;BME280;61600;48.126;11.542;2023-05-14T10:33:13;95395.34;;;15.38;59.98
73383;BME280;61600;48.126;11.542;2023-05-14T10:36:05;95397.00;;;15.57;60.85
73383;BME280;61600;48.126;11.542;2023-05-14T10:38:34;95396.16;;;15.30;60.82
73383;BME280;61600;48.126;11.542;2023-05-14T10:43:27;95419.34;;;15.24;61.20
73383;BME280;61600;48.126;11.542;2023-05-14T10:45:59;95412.13;;;15.28;61.62
73383;BME280;61600;48.126;11.542;2023-05-14T10:48:25;95402.25;;;15.02;62.49
73383;BME280;61600;48.126;11.542;2023-05-14T10:51:00;95404.50;;;15.08;62.48
73383;BME280;61600;48.126;11.542;2023-05-14T10:53:37;95409.31;;;15.02;62.80
73383;BME280;61600;48.126;11.542;2023-05-14T10:58:30;95407.91;;;15.31;61.41
73383;BME280;61600;48.126;11.542;2023-05-14T11:00:59;95396.31;;;15.42;61.88
73383;BME280;61600;48.126;11.542;2023-05-14T11:03:32;95403.91;;;15.28;61.48
73383;BME280;61600;48.126;11.542;2023-05-14T11:06:05;95400.34;;;15.36;61.73
73383;BME280;61600;48.126;11.542;2023-05-14T11:08:32;95392.31;;;15.48;61.52
73383;BME280;61600;48.126;11.542;2023-05-14T11:10:58;95401.94;;;15.20;61.18
73383;BME280;61600;48.126;11.542;2023-05-14T11:13:28;95390.84;;;15.42;60.95
73383;BME280;61600;48.126;11.542;2023-05-14T11:15:54;95388.75;;;15.39;61.07
73383;BME280;61600;48.126;11.542;2023-05-14T11:18:28;95391.69;;;15.60;59.63
73383;BME280;61600;48.126;11.542;2023-05-14T11:21:01;95383.47;;;15.69;60.79
73383;BME280;61600;48.126;11.542;2023-05-14T11:23:28;95382.00;;;15.63;60.72
73383;BME280;61600;48.126;11.542;2023-05-14T11:25:55;95380.56;;;15.65;60.54
73383;BME280;61600;48.126;11.542;2023-05-14T11:28:25;95370.06;;;15.76;59.34
73383;BME280;61600;48.126;11.542;2023-05-14T11:30:51;95375.06;;;15.82;59.73
73383;BME280;61600;48.126;11.542;2023-05-14T11:33:18;95368.63;;;15.78;59.53
73383;BME280;61600;48.126;11.542;2023-05-14T11:35:45;95373.75;;;15.97;58.15
73383;BME280;61600;48.126;11.542;2023-05-14T11:38:18;95375.88;;;15.66;59.67
73383;BME280;61600;48.126;11.542;2023-05-14T11:40:55;95375.72;;;15.71;59.19
73383;BME280;61600;48.126;11.542;2023-05-14T11:43:22;95374.91;;;15.79;58.56
73383;BME280;61600;48.126;11.542;2023-05-14T11:45:54;95366.81;;;15.91;57.60
73383;BME280;61600;48.126;11.542;2023-05-14T11:48:21;95363.72;;;16.10;57.28
73383;BME280;61600;48.126;11.542;2023-05-14T11:50:49;95357.75;;;16.08;57.48
73383;BME280;61600;48.126;11.542;2023-05-14T11:53:23;95363.94;;;16.34;56.22
73383;BME280;61600;48.126;11.542;2023-05-14T11:55:49;95357.78;;;16.45;56.51
73383;BME280;61600;48.126;11.542;2023-05-14T11:58:16;95352.41;;;16.58;55.03
73383;BME280;61600;48.126;11.542;2023-05-14T12:00:44;95352.69;;;16.65;54.13
73383;BME280;61600;48.126;11.542;2023-05-14T12:03:10;95340.22;;;16.76;53.68
73383;BME280;61600;48.126;11.542;2023-05-14T12:05:39;95336.25;;;17.15;52.49
73383;BME280;61600;48.126;11.542;2023-05-14T12:08:41;95339.53;;;17.49;51.44
73383;BME280;61600;48.126;11.542;2023-05-14T12:11:07;95331.25;;;17.58;51.36
73383;BME280;61600;48.126;11.542;2023-05-14T12:13:35;95334.22;;;17.86;50.82
73383;BME280;61600;48.126;11.542;2023-05-14T12:16:01;95326.56;;;17.59;51.95
73383;BME280;61600;48.126;11.542;2023-05-14T12:18:28;95328.41;;;17.67;51.01
73383;BME280;61600;48.126;11.542;2023-05-14T12:20:55;95328.50;;;17.58;50.46
73383;BME280;61600;48.126;11.542;2023-05-14T12:23:28;95326.72;;;17.54;51.20
73383;BME280;61600;48.126;11.542;2023-05-14T12:25:54;95323.03;;;17.70;50.97
73383;BME280;61600;48.126;11.542;2023-05-14T12:28:22;95321.59;;;17.85;50.86
73383;BME280;61600;48.126;11.542;2023-05-14T12:30:54;95305.28;;;18.13;50.78
73383;BME280;61600;48.126;11.542;2023-05-14T12:33:21;95310.94;;;18.28;50.01
73383;BME280;61600;48.126;11.542;2023-05-14T12:35:52;95304.84;;;18.35;48.45
73383;BME280;61600;48.126;11.542;2023-05-14T12:38:27;95301.09;;;18.39;47.92
73383;BME280;61600;48.126;11.542;2023-05-14T12:40:53;95294.28;;;18.25;49.66
73383;BME280;61600;48.126;11.542;2023-05-14T12:43:19;95291.66;;;19.01;47.91
73383;BME280;61600;48.126;11.542;2023-05-14T12:45:45;95278.66;;;19.14;46.67
73383;BME280;61600;48.126;11.542;2023-05-14T12:48:11;95272.22;;;19.62;45.72
73383;BME280;61600;48.126;11.542;2023-05-14T12:50:38;95273.78;;;19.35;46.70
73383;BME280;61600;48.126;11.542;2023-05-14T12:53:03;95273.47;;;19.64;45.96
73383;BME280;61600;48.126;11.542;2023-05-14T12:55:30;95267.00;;;19.44;46.15
73383;BME280;61600;48.126;11.542;2023-05-14T12:57:56;95265.13;;;19.76;46.19
73383;BME280;61600;48.126;11.542;2023-05-14T13:00:22;95268.03;;;20.11;45.09
73383;BME280;61600;48.126;11.542;2023-05-14T13:02:47;95266.63;;;20.49;44.48